Time;durP1;ratioP1;P1;durP2;ratioP2;P2;SDS_P1;SDS_P2;PMS_P1;PMS_P2;Temp;Humidity;BMP_temperature;BMP_pressure;BME280_temperature;BME280_humidity;BME280_pressure;Samples;Min_cycle;Max_cycle;Signal;HPM_P1;HPM_P2
2021/07/04 00:02:25;;;;;;;25.63;22.27;;;;;;;;;;5033103;28;20029;-62
2021/07/04 00:04:51;;;;;;;26.73;23.23;;;;;;;;;;5033080;28;20025;-63
2021/07/04 00:07:17;;;;;;;25.58;22.20;;;;;;;;;;5033706;28;20490;-62
2021/07/04 00:09:43;;;;;;;25.20;22.17;;;;;;;;;;5033710;28;20037;-63
2021/07/04 00:12:09;;;;;;;25.27;22.30;;;;;;;;;;5033412;28;20091;-62
2021/07/04 00:14:35;;;;;;;25.63;22.48;;;;;;;;;;5033328;28;20030;-63
2021/07/04 00:17:01;;;;;;;28.60;25.15;;;;;;;;;;5033382;28;20079;-64
2021/07/04 00:19:27;;;;;;;27.23;22.92;;;;;;;;;;5033365;28;20045;-63
2021/07/04 00:21:53;;;;;;;27.95;24.85;;;;;;;;;;5033372;28;20026;-63
2021/07/04 00:24:19;;;;;;;26.05;23.08;;;;;;;;;;5015461;28;20694;-63
2021/07/04 00:26:45;;;;;;;27.73;24.60;;;;;;;;;;5033333;28;20025;-63
2021/07/04 00:29:11;;;;;;;27.58;24.58;;;;;;;;;;5033220;28;20108;-64
2021/07/04 00:31:37;;;;;;;29.90;26.67;;;;;;;;;;5015628;28;20025;-62
2021/07/04 00:34:03;;;;;;;30.00;26.00;;;;;;;;;;5033190;28;20030;-62
2021/07/04 00:36:29;;;;;;;29.30;26.10;;;;;;;;;;5032894;28;20018;-62
2021/07/04 00:38:56;;;;;;;28.10;24.58;;;;;;;;;;5033883;28;20022;-62
2021/07/04 00:41:22;;;;;;;31.42;26.15;;;;;;;;;;5033071;28;20075;-62
2021/07/04 00:43:48;;;;;;;28.23;25.30;;;;;;;;;;5033341;28;20036;-63
2021/07/04 00:46:14;;;;;;;31.38;27.20;;;;;;;;;;5032972;28;20388;-62
2021/07/04 00:48:40;;;;;;;29.65;23.92;;;;;;;;;;5015107;28;20324;-61
2021/07/04 00:51:09;;;;;;;25.45;22.45;;;;;;;;;;5015256;28;20095;-62
2021/07/04 00:53:35;;;;;;;26.83;23.55;;;;;;;;;;5033077;28;20455;-62
2021/07/04 00:56:01;;;;;;;26.83;22.55;;;;;;;;;;5032846;28;20030;-62
2021/07/04 00:58:27;;;;;;;28.15;24.52;;;;;;;;;;5032713;28;20496;-63
2021/07/04 01:00:53;;;;;;;24.00;20.90;;;;;;;;;;5057400;23;20026;-57
2021/07/04 01:03:19;;;;;;;26.05;23.27;;;;;;;;;;5050969;28;20044;-58
2021/07/04 01:05:45;;;;;;;27.90;23.48;;;;;;;;;;5033583;28;20025;-61
2021/07/04 01:08:11;;;;;;;26.65;22.08;;;;;;;;;;5052755;28;20068;-60
2021/07/04 01:10:38;;;;;;;25.60;22.00;;;;;;;;;;5052543;28;20021;-60
2021/07/04 01:13:05;;;;;;;25.38;22.25;;;;;;;;;;5035010;28;20501;-60
2021/07/04 01:15:31;;;;;;;26.75;23.42;;;;;;;;;;5052305;28;20025;-60
2021/07/04 01:18:00;;;;;;;26.33;23.52;;;;;;;;;;5052713;28;20021;-60
2021/07/04 01:20:27;;;;;;;25.73;22.83;;;;;;;;;;5034699;28;20029;-61
2021/07/04 01:23:03;;;;;;;27.70;24.70;;;;;;;;;;5034653;28;20041;-59
2021/07/04 01:25:30;;;;;;;26.38;22.42;;;;;;;;;;5052187;28;20143;-59
2021/07/04 01:27:57;;;;;;;27.08;24.17;;;;;;;;;;5034507;28;20037;-60
2021/07/04 01:30:24;;;;;;;25.05;22.45;;;;;;;;;;5052303;28;20025;-60
2021/07/04 01:32:50;;;;;;;25.55;22.80;;;;;;;;;;5052181;28;20083;-60
2021/07/04 01:35:17;;;;;;;25.83;23.02;;;;;;;;;;5052088;28;20039;-57
2021/07/04 01:37:43;;;;;;;26.05;21.95;;;;;;;;;;5034506;28;20020;-58
2021/07/04 01:40:10;;;;;;;26.73;23.77;;;;;;;;;;5052272;28;20021;-60
2021/07/04 01:42:36;;;;;;;26.15;23.42;;;;;;;;;;5034421;28;20180;-61
2021/07/04 01:45:03;;;;;;;28.98;25.88;;;;;;;;;;5051945;28;20032;-61
2021/07/04 01:47:29;;;;;;;25.50;22.80;;;;;;;;;;5034221;28;20033;-59
2021/07/04 01:49:55;;;;;;;30.77;26.13;;;;;;;;;;5034509;28;20039;-60
2021/07/04 01:52:21;;;;;;;29.25;26.02;;;;;;;;;;5051475;28;20055;-60
2021/07/04 01:54:46;;;;;;;28.65;25.55;;;;;;;;;;5051321;28;20029;-60
2021/07/04 01:57:12;;;;;;;26.90;23.73;;;;;;;;;;5034467;28;20025;-60
2021/07/04 01:59:43;;;;;;;63.97;57.60;;;;;;;;;;5052106;28;20525;-61
2021/07/04 02:02:09;;;;;;;34.85;31.13;;;;;;;;;;5033913;28;20041;-56
2021/07/04 02:04:42;;;;;;;47.42;42.58;;;;;;;;;;5051735;28;20485;-60
2021/07/04 02:07:15;;;;;;;38.22;34.10;;;;;;;;;;5051891;28;20033;-60
2021/07/04 02:09:45;;;;;;;30.00;26.75;;;;;;;;;;5034075;28;20393;-61
2021/07/04 02:12:11;;;;;;;31.08;27.77;;;;;;;;;;5033784;28;20021;-60
2021/07/04 02:14:37;;;;;;;27.38;24.42;;;;;;;;;;5033654;28;20229;-60
2021/07/04 02:17:03;;;;;;;28.80;25.50;;;;;;;;;;5034172;28;20544;-58
2021/07/04 02:19:33;;;;;;;34.47;30.80;;;;;;;;;;5034100;28;20017;-58
2021/07/04 02:21:59;;;;;;;54.30;48.75;;;;;;;;;;5051711;28;20033;-58
2021/07/04 02:24:25;;;;;;;38.25;34.33;;;;;;;;;;5051534;28;20031;-58
2021/07/04 02:26:51;;;;;;;28.17;25.17;;;;;;;;;;5051779;28;20104;-59
2021/07/04 02:29:17;;;;;;;25.30;22.60;;;;;;;;;;5051703;28;20052;-58
2021/07/04 02:31:43;;;;;;;30.15;26.95;;;;;;;;;;5033736;28;20063;-61
2021/07/04 02:34:09;;;;;;;26.40;23.35;;;;;;;;;;5051652;28;20108;-59
2021/07/04 02:36:38;;;;;;;30.83;27.52;;;;;;;;;;5051687;28;20049;-60
2021/07/04 02:39:04;;;;;;;24.77;21.63;;;;;;;;;;5051720;28;20036;-61
2021/07/04 02:41:30;;;;;;;25.52;21.80;;;;;;;;;;5033864;28;20033;-61
2021/07/04 02:43:56;;;;;;;26.80;23.98;;;;;;;;;;5051559;28;20036;-61
2021/07/04 02:46:22;;;;;;;42.05;37.70;;;;;;;;;;5051404;28;20055;-60
2021/07/04 02:48:48;;;;;;;32.15;28.80;;;;;;;;;;5033807;28;20033;-61
2021/07/04 02:51:14;;;;;;;27.20;23.63;;;;;;;;;;5051293;28;20029;-60
2021/07/04 02:53:40;;;;;;;25.15;22.45;;;;;;;;;;5051472;28;20036;-61
2021/07/04 02:56:06;;;;;;;28.17;25.00;;;;;;;;;;5051139;28;20397;-61
2021/07/04 02:58:32;;;;;;;29.00;25.83;;;;;;;;;;5051520;28;20024;-61
2021/07/04 03:00:58;;;;;;;25.58;22.48;;;;;;;;;;5051133;28;20029;-61
2021/07/04 03:03:24;;;;;;;24.60;21.92;;;;;;;;;;5051359;28;20029;-61
2021/07/04 03:05:50;;;;;;;24.45;21.17;;;;;;;;;;5036728;28;20027;-61
2021/07/04 03:08:16;;;;;;;25.73;21.55;;;;;;;;;;5055166;28;20096;-58
2021/07/04 03:10:42;;;;;;;24.30;21.17;;;;;;;;;;5054553;28;20044;-60
2021/07/04 03:13:08;;;;;;;27.02;21.83;;;;;;;;;;5054793;28;20485;-58
2021/07/04 03:15:34;;;;;;;26.58;21.02;;;;;;;;;;5054819;28;20025;-59
2021/07/04 03:18:00;;;;;;;23.65;20.70;;;;;;;;;;5037009;28;20029;-60
2021/07/04 03:20:26;;;;;;;23.52;20.65;;;;;;;;;;5036603;28;20021;-60
2021/07/04 03:22:52;;;;;;;25.42;21.13;;;;;;;;;;5054716;28;20040;-60
2021/07/04 03:25:18;;;;;;;24.13;21.52;;;;;;;;;;5036413;28;20473;-60
2021/07/04 03:27:45;;;;;;;24.65;22.05;;;;;;;;;;5036988;28;20028;-60
2021/07/04 03:30:13;;;;;;;25.63;22.88;;;;;;;;;;5036843;28;20037;-60
2021/07/04 03:32:39;;;;;;;24.92;21.67;;;;;;;;;;5054059;28;20037;-58
2021/07/04 03:35:06;;;;;;;24.45;21.80;;;;;;;;;;5036263;28;20408;-61
2021/07/04 03:37:32;;;;;;;25.65;21.75;;;;;;;;;;5036778;28;20025;-60
2021/07/04 03:39:58;;;;;;;25.63;21.50;;;;;;;;;;5036713;28;20021;-59
2021/07/04 03:42:24;;;;;;;27.40;22.70;;;;;;;;;;5036833;28;20029;-61
2021/07/04 03:44:50;;;;;;;29.52;21.98;;;;;;;;;;5036517;28;20033;-59
2021/07/04 03:47:18;;;;;;;26.02;22.60;;;;;;;;;;5054673;28;20021;-60
2021/07/04 03:49:44;;;;;;;26.33;22.08;;;;;;;;;;5054430;28;20481;-61
2021/07/04 03:52:10;;;;;;;26.25;21.83;;;;;;;;;;5036450;28;20040;-60
2021/07/04 03:54:36;;;;;;;27.63;22.23;;;;;;;;;;5054230;28;20017;-61
2021/07/04 03:57:21;;;;;;;24.67;22.08;;;;;;;;;;5036287;28;20120;-60
2021/07/04 03:59:47;;;;;;;25.98;22.65;;;;;;;;;;5054353;28;20033;-61
2021/07/04 04:02:13;;;;;;;25.52;22.48;;;;;;;;;;5035797;28;20040;-60
2021/07/04 04:04:39;;;;;;;27.05;24.17;;;;;;;;;;5036102;28;20393;-59
2021/07/04 04:07:05;;;;;;;26.98;23.02;;;;;;;;;;5053796;28;20116;-62
2021/07/04 04:09:31;;;;;;;26.45;22.73;;;;;;;;;;5036235;28;20021;-62
2021/07/04 04:11:57;;;;;;;25.98;22.35;;;;;;;;;;5053627;28;20048;-57
2021/07/04 04:14:22;;;;;;;26.85;23.40;;;;;;;;;;5053599;28;20044;-61
2021/07/04 04:16:48;;;;;;;28.95;22.92;;;;;;;;;;5053317;28;20501;-60
2021/07/04 04:19:14;;;;;;;26.92;22.98;;;;;;;;;;5035769;28;20075;-59
2021/07/04 04:21:40;;;;;;;29.88;24.40;;;;;;;;;;5053453;28;20021;-60
2021/07/04 04:24:06;;;;;;;26.75;23.58;;;;;;;;;;5035771;28;20064;-56
2021/07/04 04:26:32;;;;;;;27.98;24.40;;;;;;;;;;5053548;28;20099;-59
2021/07/04 04:28:59;;;;;;;29.08;25.58;;;;;;;;;;5035783;28;20025;-60
2021/07/04 04:31:25;;;;;;;29.15;25.08;;;;;;;;;;5035648;28;20080;-60
2021/07/04 04:33:51;;;;;;;28.42;25.42;;;;;;;;;;5035600;28;20112;-60
2021/07/04 04:36:16;;;;;;;27.63;23.55;;;;;;;;;;5053062;28;20105;-60
2021/07/04 04:38:42;;;;;;;30.48;25.52;;;;;;;;;;5053546;28;20025;-58
2021/07/04 04:41:08;;;;;;;33.88;27.27;;;;;;;;;;5035367;28;20021;-59
2021/07/04 04:43:35;;;;;;;30.27;26.02;;;;;;;;;;5053180;28;20052;-59
2021/07/04 04:46:01;;;;;;;28.33;24.30;;;;;;;;;;5035050;28;20106;-59
2021/07/04 04:48:27;;;;;;;28.65;25.55;;;;;;;;;;5053375;28;20028;-58
2021/07/04 04:50:53;;;;;;;29.83;25.83;;;;;;;;;;5052858;28;20033;-60
2021/07/04 04:53:19;;;;;;;27.98;24.73;;;;;;;;;;5035056;28;20025;-60
2021/07/04 04:55:45;;;;;;;30.73;25.20;;;;;;;;;;5035193;28;20388;-58
2021/07/04 04:58:11;;;;;;;28.65;24.90;;;;;;;;;;5053024;28;20033;-60
2021/07/04 05:00:37;;;;;;;28.10;25.08;;;;;;;;;;5053150;28;20477;-60
2021/07/04 05:03:06;;;;;;;29.80;24.33;;;;;;;;;;5035171;28;20041;-60
2021/07/04 05:05:33;;;;;;;28.45;24.80;;;;;;;;;;5052638;28;20021;-60
2021/07/04 05:07:59;;;;;;;29.35;25.90;;;;;;;;;;5052716;28;20052;-61
2021/07/04 05:10:25;;;;;;;29.75;26.45;;;;;;;;;;5052596;28;20044;-60
2021/07/04 05:12:50;;;;;;;31.63;26.33;;;;;;;;;;5034653;28;20028;-60
2021/07/04 05:15:17;;;;;;;29.35;26.15;;;;;;;;;;5052457;28;20021;-61
2021/07/04 05:17:43;;;;;;;30.73;25.85;;;;;;;;;;5052406;28;20512;-61
2021/07/04 05:20:10;;;;;;;31.58;26.85;;;;;;;;;;5052660;28;20058;-61
2021/07/04 05:22:36;;;;;;;27.55;24.15;;;21.90;99.90;;;;;;5034560;28;20481;-60
2021/07/04 05:25:03;;;;;;;27.88;23.70;;;18.50;99.90;;;;;;5052100;28;20017;-61
2021/07/04 05:27:28;;;;;;;28.73;24.58;;;18.20;99.90;;;;;;5051583;28;20401;-61
2021/07/04 05:29:54;;;;;;;29.98;24.52;;;18.20;99.90;;;;;;5052243;28;20025;-60
2021/07/04 05:32:20;;;;;;;32.53;24.65;;;18.20;99.90;;;;;;5051989;28;20505;-61
2021/07/04 05:34:46;;;;;;;30.83;25.42;;;18.30;99.90;;;;;;5052039;28;20021;-61
2021/07/04 05:37:12;;;;;;;28.30;25.10;;;18.30;99.90;;;;;;5034660;28;20103;-59
2021/07/04 05:39:38;;;;;;;27.95;24.45;;;18.30;99.90;;;;;;5052195;28;20029;-61
2021/07/04 05:42:04;;;;;;;27.73;24.55;;;18.30;99.90;;;;;;5034432;28;20494;-60
2021/07/04 05:44:30;;;;;;;27.95;24.95;;;18.40;99.90;;;;;;5034162;28;20123;-61
2021/07/04 05:46:56;;;;;;;32.38;26.55;;;18.40;99.90;;;;;;5034198;28;20091;-61
2021/07/04 05:49:22;;;;;;;28.20;25.15;;;18.40;99.90;;;;;;5034116;28;20029;-61
2021/07/04 05:51:47;;;;;;;37.92;30.95;;;18.40;99.90;;;;;;5052061;28;20495;-60
2021/07/04 05:54:14;;;;;;;29.65;26.60;;;18.30;99.90;;;;;;5034046;28;20024;-61
2021/07/04 05:56:39;;;;;;;29.52;26.38;;;18.30;99.90;;;;;;5034240;28;20028;-61
2021/07/04 05:59:05;;;;;;;28.48;24.73;;;18.30;99.90;;;;;;5052148;28;20456;-58
2021/07/04 06:01:31;;;;;;;30.88;25.95;;;18.40;99.90;;;;;;5034000;28;20404;-61
2021/07/04 06:03:56;;;;;;;29.95;25.77;;;18.30;99.90;;;;;;5034139;28;20036;-61
2021/07/04 06:06:22;;;;;;;31.17;25.15;;;18.30;99.90;;;;;;5033862;28;20025;-60
2021/07/04 06:08:48;;;;;;;28.08;24.58;;;18.40;99.90;;;;;;5051895;28;20461;-61
2021/07/04 06:11:13;;;;;;;29.25;25.52;;;18.40;99.90;;;;;;5051817;28;20025;-61
2021/07/04 06:13:39;;;;;;;28.75;24.90;;;18.40;99.90;;;;;;5050107;28;20021;-62
2021/07/04 06:16:05;;;;;;;29.13;25.42;;;18.40;99.90;;;;;;5040196;28;20020;-60
2021/07/04 06:18:30;;;;;;;28.52;25.42;;;18.40;99.90;;;;;;5051628;28;20025;-59
2021/07/04 06:20:56;;;;;;;27.52;24.08;;;18.40;99.90;;;;;;5051815;28;20032;-60
2021/07/04 06:23:22;;;;;;;28.15;24.92;;;18.50;99.90;;;;;;5034124;28;20480;-60
2021/07/04 06:25:47;;;;;;;27.52;24.38;;;18.50;99.90;;;;;;5050822;28;20052;-60
2021/07/04 06:28:13;;;;;;;27.83;24.83;;;18.50;99.90;;;;;;5033818;28;20083;-61
2021/07/04 06:30:39;;;;;;;27.63;24.73;;;18.60;99.90;;;;;;5051407;28;20021;-60
2021/07/04 06:33:04;;;;;;;29.58;25.30;;;18.60;99.90;;;;;;5051547;28;20059;-60
2021/07/04 06:35:30;;;;;;;28.55;25.45;;;18.60;99.90;;;;;;5032922;28;20308;-59
2021/07/04 06:37:56;;;;;;;27.25;24.33;;;18.70;99.90;;;;;;5051498;28;20028;-60
2021/07/04 06:40:21;;;;;;;27.85;23.95;;;18.80;99.90;;;;;;5036722;28;20067;-59
2021/07/04 06:42:47;;;;;;;29.70;24.05;;;18.80;99.90;;;;;;5055505;28;20503;-59
2021/07/04 06:45:13;;;;;;;27.55;24.40;;;18.90;99.90;;;;;;5054779;28;20071;-59
2021/07/04 06:47:41;;;;;;;26.67;23.70;;;18.90;99.90;;;;;;5036703;28;20602;-60
2021/07/04 06:50:07;;;;;;;27.08;22.65;;;19.00;99.90;;;;;;5036731;28;20059;-60
2021/07/04 06:52:34;;;;;;;25.90;22.40;;;;;;;;;;5054816;28;20056;-60
2021/07/04 06:55:00;;;;;;;28.23;23.30;;;;;;;;;;5036543;28;20540;-59
2021/07/04 06:57:27;;;;;;;26.50;23.60;;;;;;;;;;5036945;28;20028;-60
2021/07/04 06:59:53;;;;;;;28.33;23.80;;;;;;;;;;5054778;28;20076;-60
2021/07/04 07:02:19;;;;;;;26.55;22.75;;;;;;;;;;5008932;23;1117682;-62
2021/07/04 07:04:45;;;;;;;25.75;22.67;;;;;;;;;;5013064;28;20079;-62
2021/07/04 07:07:11;;;;;;;27.85;22.42;;;;;;;;;;5013851;28;20124;-62
2021/07/04 07:09:37;;;;;;;24.38;21.77;;;;;;;;;;5014873;28;20029;-62
2021/07/04 07:12:03;;;;;;;26.05;22.52;;;;;;;;;;5014528;28;20137;-62
2021/07/04 07:14:29;;;;;;;25.45;22.17;;;;;;;;;;5014187;28;20041;-62
2021/07/04 07:16:55;;;;;;;25.05;21.80;;;;;;;;;;5014685;28;20022;-62
2021/07/04 07:19:20;;;;;;;26.30;21.58;;;;;;;;;;5014911;28;20033;-62
2021/07/04 07:21:46;;;;;;;24.60;21.90;;;;;;;;;;5014545;28;20097;-62
2021/07/04 07:24:12;;;;;;;26.58;22.80;;;;;;;;;;5012961;28;20026;-61
2021/07/04 07:26:38;;;;;;;25.35;21.95;;;;;;;;;;5014392;28;20144;-62
2021/07/04 07:29:04;;;;;;;26.10;22.17;;;;;;;;;;5014535;28;20014;-62
2021/07/04 07:31:31;;;;;;;27.02;22.70;;;;;;;;;;5012931;28;20030;-61
2021/07/04 07:33:57;;;;;;;26.30;22.85;;;;;;;;;;5014458;28;20445;-64
2021/07/04 07:36:23;;;;;;;26.15;22.27;;;;;;;;;;5013856;28;20029;-62
2021/07/04 07:38:49;;;;;;;26.00;21.67;;;;;;;;;;5014135;28;20037;-62
2021/07/04 07:41:15;;;;;;;25.25;21.40;;;;;;;;;;5012956;28;20486;-62
2021/07/04 07:43:43;;;;;;;23.65;20.42;;;;;;;;;;5012271;28;20028;-63
2021/07/04 07:46:09;;;;;;;23.80;20.48;;;;;;;;;;5013302;28;20022;-63
2021/07/04 07:48:35;;;;;;;27.90;20.35;;;;;;;;;;5012459;28;20030;-62
2021/07/04 07:51:01;;;;;;;24.70;20.30;;;;;;;;;;5012772;28;20528;-62
2021/07/04 07:53:27;;;;;;;24.95;21.25;;;;;;;;;;5012385;28;20017;-63
2021/07/04 07:55:54;;;;;;;27.30;20.77;;;;;;;;;;5011393;28;20064;-62
2021/07/04 07:58:20;;;;;;;25.45;21.38;;;;;;;;;;5013873;28;20053;-63
2021/07/04 08:00:46;;;;;;;31.50;22.05;;;;;;;;;;5012296;28;20032;-62
2021/07/04 08:03:15;;;;;;;22.35;19.35;;;;;;;;;;5012333;28;20038;-62
2021/07/04 08:05:41;;;;;;;26.15;20.30;;;;;;;;;;5012737;28;20026;-62
2021/07/04 08:08:08;;;;;;;26.23;21.60;;;;;;;;;;5012170;28;20029;-62
2021/07/04 08:10:35;;;;;;;24.92;21.20;;;;;;;;;;5013053;28;20481;-65
2021/07/04 08:13:01;;;;;;;24.23;21.60;;;;;;;;;;5012813;28;20560;-65
2021/07/04 08:15:27;;;;;;;25.05;21.80;;;;;;;;;;5012611;28;20056;-65
2021/07/04 08:17:53;;;;;;;30.20;22.55;;;;;;;;;;5013318;28;20022;-66
2021/07/04 08:20:19;;;;;;;28.92;22.35;;;;;;;;;;5013359;28;20427;-65
2021/07/04 08:22:45;;;;;;;30.13;22.52;;;;;;;;;;5013148;28;20041;-65
2021/07/04 08:25:11;;;;;;;26.77;23.85;;;;;;;;;;5012732;28;20033;-65
2021/07/04 08:27:37;;;;;;;27.67;22.85;;;;;;;;;;5013245;28;20045;-63
2021/07/04 08:30:05;;;;;;;24.50;21.75;;;;;;;;;;5012863;28;20133;-63
2021/07/04 08:32:31;;;;;;;26.48;22.60;;;;;;;;;;5011157;28;20025;-63
2021/07/04 08:34:57;;;;;;;25.77;21.67;;;;;;;;;;5011159;28;20037;-63
2021/07/04 08:37:23;;;;;;;26.15;21.65;;;;;;;;;;5013014;28;20026;-63
2021/07/04 08:39:49;;;;;;;24.50;21.30;;;;;;;;;;5013082;28;20056;-63
2021/07/04 08:42:15;;;;;;;24.02;20.67;;;;;;;;;;5012844;28;20030;-62
2021/07/04 08:44:50;;;;;;;25.23;20.38;;;;;;;;;;5010814;28;20032;-63
2021/07/04 08:47:17;;;;;;;25.65;21.10;;;;;;;;;;5012698;28;20057;-63
2021/07/04 08:49:44;;;;;;;25.33;19.92;;;;;;;;;;5010810;28;20474;-63
2021/07/04 08:52:10;;;;;;;26.65;20.50;;;;;;;;;;5012502;28;20380;-63
2021/07/04 08:54:36;;;;;;;25.10;20.08;;;;;;;;;;5010747;28;20029;-63
2021/07/04 08:57:08;;;;;;;22.98;19.05;;;;;;;;;;5003279;28;20034;-66
2021/07/04 08:59:34;;;;;;;23.83;19.75;;;;;;;;;;5005654;28;20351;-66
2021/07/04 09:02:00;;;;;;;25.92;19.77;;;;;;;;;;5010947;28;20045;-66
2021/07/04 09:04:26;;;;;;;24.08;19.27;;;;;;;;;;5012237;28;20097;-67
2021/07/04 09:06:53;;;;;;;25.02;18.58;;;;;;;;;;5011102;28;20022;-67
2021/07/04 09:09:35;;;;;;;23.35;19.33;;;;;;;;;;5011035;28;20112;-67
2021/07/04 09:12:03;;;;;;;23.65;19.13;;;;;;;;;;5012066;28;20502;-67
2021/07/04 09:14:30;;;;;;;22.40;19.15;;;;;;;;;;5008670;28;20038;-67
2021/07/04 09:16:56;;;;;;;25.15;19.30;;;;;;;;;;5011667;28;20054;-67
2021/07/04 09:19:22;;;;;;;24.77;20.08;;;;;;;;;;5011609;28;20484;-69
2021/07/04 09:22:03;;;;;;;24.77;19.33;;;;;;;;;;5011410;28;20025;-68
2021/07/04 09:24:34;;;;;;;23.45;20.20;;;;;;;;;;5008065;28;20033;-64
2021/07/04 09:27:00;;;;;;;23.70;20.33;;;;;;;;;;4993633;28;20057;-64
2021/07/04 09:29:46;;;;;;;25.08;21.17;;;;;;;;;;4992310;28;20469;-64
2021/07/04 09:32:20;;;;;;;24.05;19.90;;;;;;;;;;4990828;28;20022;-65
2021/07/04 09:35:10;;;;;;;23.50;19.33;;;;;;;;;;4991238;28;20053;-65
2021/07/04 09:37:40;;;;;;;24.08;20.13;;;;;;;;;;4985172;28;20423;-64
2021/07/04 09:40:08;;;;;;;24.75;19.52;;;;;;;;;;4991329;28;20026;-64
2021/07/04 09:42:35;;;;;;;24.52;19.77;;;;;;;;;;4991507;28;20027;-64
2021/07/04 09:45:00;;;;;;;24.48;19.40;;;;;;;;;;4991211;28;20077;-64
2021/07/04 09:47:27;;;;;;;25.10;21.42;;;;;;;;;;4990022;28;20022;-64
2021/07/04 09:50:02;;;;;;;24.48;19.63;;;;;;;;;;4991873;28;20027;-64
2021/07/04 09:52:28;;;;;;;25.15;19.63;;;;;;;;;;4991976;28;20022;-64
2021/07/04 09:54:55;;;;;;;23.70;18.98;;;;;;;;;;4991334;28;20044;-64
2021/07/04 09:57:22;;;;;;;22.95;18.65;;;;;;;;;;4992033;28;20611;-64
2021/07/04 09:59:48;;;;;;;24.02;18.77;;;;;;;;;;4991732;28;20391;-64
2021/07/04 10:02:15;;;;;;;23.08;19.27;;;;;;;;;;4991854;28;20042;-65
2021/07/04 10:04:41;;;;;;;21.55;17.83;;;;;;;;;;4991149;28;20367;-64
2021/07/04 10:07:07;;;;;;;20.88;17.60;;;;;;;;;;4991867;28;20026;-65
2021/07/04 10:09:33;;;;;;;21.98;17.55;;;;;;;;;;4990467;28;20026;-65
2021/07/04 10:12:00;;;;;;;22.50;19.30;;;;;;;;;;4990166;28;20026;-65
2021/07/04 10:14:26;;;;;;;22.42;18.77;;;;;;;;;;4992586;28;20026;-65
2021/07/04 10:16:53;;;;;;;23.95;19.23;;;;;;;;;;5006638;28;20393;-64
2021/07/04 10:19:23;;;;;;;22.83;18.58;;;;;;;;;;5014288;28;20058;-65
2021/07/04 10:21:51;;;;;;;22.10;17.55;;;;;;;;;;5015116;28;20058;-65
2021/07/04 10:24:17;;;;;;;22.35;18.80;;;;;;;;;;5013441;28;20029;-65
2021/07/04 10:26:44;;;;;;;23.83;19.15;;;;;;;;;;5013868;28;20117;-65
2021/07/04 10:29:12;;;;;;;22.33;18.52;;;;;;;;;;5015234;28;20023;-65
2021/07/04 10:31:38;;;;;;;24.25;18.90;;;;;;;;;;5015034;28;20097;-63
2021/07/04 10:34:04;;;;;;;21.05;17.52;;;;;;;;;;5014862;28;20061;-64
2021/07/04 10:36:32;;;;;;;21.95;17.75;;;;;;;;;;5014393;28;20421;-63
2021/07/04 10:39:00;;;;;;;22.48;18.08;;;;;;;;;;5015214;28;20017;-63
2021/07/04 10:41:26;;;;;;;23.85;19.55;;;;;;;;;;5014675;28;20028;-63
2021/07/04 10:44:04;;;;;;;23.33;19.58;;;;;;;;;;5013252;28;20033;-63
2021/07/04 10:46:30;;;;;;;;;;;;;;;;;;5014798;28;20030;-63
2021/07/04 10:48:57;;;;;;;23.20;18.65;;;;;;;;;;5013610;28;19951;-63
2021/07/04 10:51:24;;;;;;;22.17;17.85;;;;;;;;;;5013184;28;20057;-63
2021/07/04 10:53:52;;;;;;;21.73;18.27;;;19.00;99.90;;;;;;5012982;28;20029;-63
2021/07/04 10:56:33;;;;;;;21.45;18.70;;;;;;;;;;5013855;28;20022;-63
2021/07/04 10:59:05;;;;;;;20.88;17.63;;;28.10;99.90;;;;;;5014029;28;20167;-63
2021/07/04 11:01:49;;;;;;;22.33;18.50;;;;;;;;;;5013947;28;20107;-64
2021/07/04 11:04:30;;;;;;;20.65;17.70;;;;;;;;;;5013679;28;20037;-63
2021/07/04 11:06:59;;;;;;;21.27;18.90;;;;;;;;;;5012961;28;20482;-63
2021/07/04 11:09:45;;;;;;;19.63;17.50;;;28.70;99.90;;;;;;5013015;28;20060;-63
2021/07/04 11:12:26;;;;;;;19.27;16.83;;;;;;;;;;5013861;28;20038;-63
2021/07/04 11:15:11;;;;;;;19.15;17.13;;;;;;;;;;5013426;28;20041;-62
2021/07/04 11:17:56;;;;;;;20.60;17.92;;;;;;;;;;5013885;28;20105;-62
2021/07/04 11:20:23;;;;;;;22.27;17.85;;;;;;;;;;5013798;28;20106;-63
2021/07/04 11:22:58;;;;;;;21.47;18.10;;;;;;;;;;5013962;28;20034;-63
2021/07/04 11:25:25;;;;;;;22.98;17.80;;;;;;;;;;5012427;28;20451;-63
2021/07/04 11:28:10;;;;;;;20.25;17.90;;;;;;;;;;5012449;28;20398;-63
2021/07/04 11:30:36;;;;;;;19.55;17.45;;;;;;;;;;5012633;28;20026;-63
2021/07/04 11:33:21;;;;;;;19.35;17.00;;;;;;;;;;5013691;28;20033;-63
2021/07/04 11:35:47;;;;;;;19.13;16.98;;;;;;;;;;5011706;28;20032;-63
2021/07/04 11:38:17;;;;;;;20.42;17.55;;;;;;;;;;5013738;28;20022;-64
2021/07/04 11:40:43;;;;;;;20.02;17.88;;;;;;;;;;5013636;28;20034;-63
2021/07/04 11:43:16;;;;;;;20.77;18.58;;;;;;;;;;5013522;28;20030;-63
2021/07/04 11:45:49;;;;;;;20.55;18.35;;;;;;;;;;5011441;28;20025;-63
2021/07/04 11:48:15;;;;;;;19.52;17.42;;;;;;;;;;5011335;28;20087;-63
2021/07/04 11:50:45;;;;;;;20.58;18.15;;;;;;;;;;5013511;28;20029;-63
2021/07/04 11:53:11;;;;;;;20.10;17.83;;;;;;;;;;5013580;28;20030;-63
2021/07/04 11:55:58;;;;;;;19.35;16.98;;;;;;;;;;5013174;28;20151;-62
2021/07/04 11:58:28;;;;;;;20.65;17.70;;;;;;;;;;5013206;28;20014;-63
2021/07/04 12:00:54;;;;;;;19.23;17.13;;;28.70;99.90;;;;;;5013228;28;20064;-63
2021/07/04 12:03:26;;;;;;;20.48;18.38;;;26.40;99.90;;;;;;5011803;28;20057;-63
2021/07/04 12:05:53;;;;;;;19.27;17.17;;;25.70;99.90;;;;;;5011612;28;20033;-62
2021/07/04 12:08:18;;;;;;;18.85;16.85;;;25.40;99.90;;;;;;5007454;28;20050;-63
2021/07/04 12:10:52;;;;;;;19.17;16.52;;;25.30;99.90;;;;;;5008514;28;20026;-63
2021/07/04 12:13:18;;;;;;;19.05;17.05;;;25.00;99.90;;;;;;5007967;28;20065;-64
2021/07/04 12:15:49;;;;;;;19.63;17.10;;;24.90;99.90;;;;;;5008655;28;20068;-63
2021/07/04 12:18:16;;;;;;;20.05;16.98;;;24.80;99.90;;;;;;5009868;28;20014;-60
2021/07/04 12:20:49;;;;;;;18.75;16.30;;;24.50;99.90;;;;;;5009056;28;20018;-59
2021/07/04 12:23:15;;;;;;;23.20;13.63;;;24.10;99.90;;;;;;5005817;28;20034;-63
2021/07/04 12:25:44;;;;;;;19.90;12.57;;;;;;;;;;5009129;28;20083;-62
2021/07/04 12:28:18;;;;;;;16.92;11.70;;;23.00;99.90;;;;;;5008192;28;20109;-62
2021/07/04 12:30:48;;;;;;;16.15;10.52;;;20.30;99.90;;;;;;5008049;28;20469;-63
2021/07/04 12:33:24;;;;;;;16.05;10.90;;;19.40;99.90;;;;;;5009251;28;20100;-60
2021/07/04 12:35:55;;;;;;;16.98;14.18;;;;;;;;;;5008383;28;20026;-62
2021/07/04 12:38:27;;;;;;;24.15;21.85;;;18.30;99.90;;;;;;5007525;28;20494;-59
2021/07/04 12:41:03;;;;;;;40.97;27.35;;;16.60;99.90;;;;;;5009298;28;20038;-61
2021/07/04 12:43:49;;;;;;;29.40;26.40;;;16.20;99.90;;;;;;5008810;28;20040;-63
2021/07/04 12:46:22;;;;;;;26.90;24.30;;;15.90;99.90;;;;;;5012155;28;20030;-60
2021/07/04 12:48:49;;;;;;;24.33;21.90;;;16.30;99.90;;;;;;5011159;28;20105;-63
2021/07/04 12:51:27;;;;;;;23.20;21.00;;;16.20;99.90;;;;;;5012278;28;20022;-63
2021/07/04 12:53:53;;;;;;;23.50;21.27;;;16.20;99.90;;;;;;5012603;28;20022;-63
2021/07/04 12:56:27;;;;;;;23.45;20.80;;;16.30;99.90;;;;;;5010536;28;20034;-64
2021/07/04 12:59:05;;;;;;;23.35;20.80;;;16.40;99.90;;;;;;4662323;28;9999744;-64
2021/07/04 13:01:35;;;;;;;21.80;19.50;;;16.70;99.90;;;;;;5008796;28;20038;-64
2021/07/04 13:04:03;;;;;;;20.65;18.52;;;16.80;99.90;;;;;;5009411;28;20037;-63
2021/07/04 13:06:47;;;;;;;20.92;18.55;;;16.90;99.90;;;;;;5007289;28;20030;-63
2021/07/04 13:09:25;;;;;;;20.13;17.88;;;16.90;99.90;;;;;;5007716;28;20029;-65
2021/07/04 13:11:58;;;;;;;19.92;17.48;;;16.90;99.90;;;;;;5008952;28;20037;-64
2021/07/04 13:14:44;;;;;;;20.90;18.80;;;17.30;99.90;;;;;;5007048;28;20026;-64
2021/07/04 13:17:17;;;;;;;20.63;18.48;;;17.40;99.90;;;;;;5008536;28;20560;-64
2021/07/04 13:19:43;;;;;;;21.15;18.92;;;17.40;99.90;;;;;;5008662;28;20139;-64
2021/07/04 13:22:24;;;;;;;21.40;19.15;;;17.40;99.90;;;;;;5006647;28;20045;-65
2021/07/04 13:24:52;;;;;;;23.83;21.17;;;17.50;99.90;;;;;;5006842;28;20034;-65
2021/07/04 13:27:31;;;;;;;21.90;18.73;;;17.80;99.90;;;;;;5007514;28;20037;-64
2021/07/04 13:30:04;;;;;;;;;;;18.10;99.90;;;;;;5009514;28;20164;-65
2021/07/04 13:32:30;;;;;;;22.23;19.73;;;18.40;99.90;;;;;;5007160;28;19913;-66
2021/07/04 13:34:56;;;;;;;22.55;19.15;;;18.50;99.90;;;;;;5007335;28;20791;-67
2021/07/04 13:37:24;;;;;;;19.33;16.92;;;18.70;99.90;;;;;;5007126;28;20092;-66
2021/07/04 13:40:12;;;;;;;21.77;19.48;;;18.80;99.90;;;;;;5008700;28;20526;-67
2021/07/04 13:42:40;;;;;;;20.63;18.43;;;18.70;99.90;;;;;;5008288;28;20394;-65
2021/07/04 13:45:30;;;;;;;22.35;20.05;;;19.00;99.90;;;;;;5007069;28;20281;-66
2021/07/04 13:47:57;;;;;;;20.60;18.40;;;;;;;;;;5008022;28;20030;-66
2021/07/04 13:50:23;;;;;;;24.75;19.52;;;;;;;;;;5008080;28;20083;-67
2021/07/04 13:52:49;;;;;;;23.85;19.67;;;;;;;;;;5030467;23;20136;-62
2021/07/04 13:55:15;;;;;;;22.08;19.77;;;;;;;;;;5006752;28;20530;-59